sensor_id;sensor_type;location;lat;lon;timestamp;pressure;altitude;pressure_sealevel;temperature;humidity
21879;BME280;27908;42.708;23.278;2023-04-27T00:01:44;63542.66;;;7.66;71.57
21879;BME280;27908;42.708;23.278;2023-04-27T00:04:09;63377.44;;;7.73;72.84
21879;BME280;27908;42.708;23.278;2023-04-27T00:06:34;63307.78;;;7.60;72.47
21879;BME280;27908;42.708;23.278;2023-04-27T00:09:00;63313.16;;;7.43;71.43
21879;BME280;27908;42.708;23.278;2023-04-27T00:11:26;63314.78;;;7.52;71.13
21879;BME280;27908;42.708;23.278;2023-04-27T00:13:51;63361.94;;;7.51;71.53
21879;BME280;27908;42.708;23.278;2023-04-27T00:16:17;63295.97;;;7.46;71.63
21879;BME280;27908;42.708;23.278;2023-04-27T00:18:42;63336.50;;;7.43;72.23
21879;BME280;27908;42.708;23.278;2023-04-27T00:21:08;63315.47;;;7.26;73.63
21879;BME280;27908;42.708;23.278;2023-04-27T00:23:34;63318.06;;;7.28;73.22
21879;BME280;27908;42.708;23.278;2023-04-27T00:26:00;63288.03;;;7.19;73.75
21879;BME280;27908;42.708;23.278;2023-04-27T00:28:25;63255.13;;;7.21;74.48
21879;BME280;27908;42.708;23.278;2023-04-27T00:30:51;63288.13;;;7.26;73.72
21879;BME280;27908;42.708;23.278;2023-04-27T00:33:19;63275.34;;;7.16;74.78
21879;BME280;27908;42.708;23.278;2023-04-27T00:35:44;63224.69;;;7.16;73.86
21879;BME280;27908;42.708;23.278;2023-04-27T00:38:10;63254.00;;;7.13;74.26
21879;BME280;27908;42.708;23.278;2023-04-27T00:40:36;63281.28;;;7.05;74.37
21879;BME280;27908;42.708;23.278;2023-04-27T00:43:01;63251.13;;;6.83;74.77
21879;BME280;27908;42.708;23.278;2023-04-27T00:45:27;63250.31;;;7.00;74.65
21879;BME280;27908;42.708;23.278;2023-04-27T00:47:52;63238.41;;;6.78;74.05
21879;BME280;27908;42.708;23.278;2023-04-27T00:50:26;63233.84;;;6.40;75.10
21879;BME280;27908;42.708;23.278;2023-04-27T00:52:52;63247.38;;;6.68;76.13
21879;BME280;27908;42.708;23.278;2023-04-27T00:55:17;63227.13;;;6.68;75.30
21879;BME280;27908;42.708;23.278;2023-04-27T00:57:43;63240.97;;;6.81;75.87
21879;BME280;27908;42.708;23.278;2023-04-27T01:00:09;63187.63;;;6.66;75.07
21879;BME280;27908;42.708;23.278;2023-04-27T01:02:35;63232.88;;;6.83;74.98
21879;BME280;27908;42.708;23.278;2023-04-27T01:05:01;63235.22;;;6.66;75.45
21879;BME280;27908;42.708;23.278;2023-04-27T01:07:28;63216.09;;;6.76;75.46
21879;BME280;27908;42.708;23.278;2023-04-27T01:09:53;63180.97;;;6.60;76.70
21879;BME280;27908;42.708;23.278;2023-04-27T01:12:19;63239.16;;;6.57;76.13
21879;BME280;27908;42.708;23.278;2023-04-27T01:14:44;63264.91;;;6.53;76.83
21879;BME280;27908;42.708;23.278;2023-04-27T01:17:10;63192.16;;;6.63;77.29
21879;BME280;27908;42.708;23.278;2023-04-27T01:19:36;63196.69;;;6.63;77.61
21879;BME280;27908;42.708;23.278;2023-04-27T01:22:02;63226.03;;;6.59;77.44
21879;BME280;27908;42.708;23.278;2023-04-27T01:24:27;63160.66;;;6.55;77.05
21879;BME280;27908;42.708;23.278;2023-04-27T01:26:53;63173.31;;;6.55;77.96
21879;BME280;27908;42.708;23.278;2023-04-27T01:29:19;63230.44;;;6.49;77.72
21879;BME280;27908;42.708;23.278;2023-04-27T01:31:45;63182.78;;;6.42;78.35
21879;BME280;27908;42.708;23.278;2023-04-27T01:34:10;63190.34;;;6.39;78.18
21879;BME280;27908;42.708;23.278;2023-04-27T01:36:36;63154.38;;;6.37;77.44
21879;BME280;27908;42.708;23.278;2023-04-27T01:39:02;63179.19;;;6.38;78.33
21879;BME280;27908;42.708;23.278;2023-04-27T01:41:28;63207.00;;;6.38;79.08
21879;BME280;27908;42.708;23.278;2023-04-27T01:43:53;63139.16;;;6.34;79.29
21879;BME280;27908;42.708;23.278;2023-04-27T01:46:19;63208.94;;;6.31;78.59
21879;BME280;27908;42.708;23.278;2023-04-27T01:48:44;63162.19;;;6.12;79.06
21879;BME280;27908;42.708;23.278;2023-04-27T01:51:10;63188.53;;;6.18;79.43
21879;BME280;27908;42.708;23.278;2023-04-27T01:53:35;63150.53;;;6.13;79.62
21879;BME280;27908;42.708;23.278;2023-04-27T01:56:01;63190.50;;;6.13;80.64
21879;BME280;27908;42.708;23.278;2023-04-27T01:58:27;63153.56;;;6.11;79.32
21879;BME280;27908;42.708;23.278;2023-04-27T02:00:53;63198.59;;;6.13;79.71
21879;BME280;27908;42.708;23.278;2023-04-27T02:03:18;63173.78;;;6.11;79.62
21879;BME280;27908;42.708;23.278;2023-04-27T02:05:44;63151.03;;;6.11;79.70
21879;BME280;27908;42.708;23.278;2023-04-27T02:08:09;63157.59;;;6.10;79.59
21879;BME280;27908;42.708;23.278;2023-04-27T02:10:35;63142.81;;;6.01;79.95
21879;BME280;27908;42.708;23.278;2023-04-27T02:13:01;63170.16;;;6.05;80.51
21879;BME280;27908;42.708;23.278;2023-04-27T02:15:26;63123.41;;;5.87;81.74
21879;BME280;27908;42.708;23.278;2023-04-27T02:17:52;63145.31;;;5.99;80.60
21879;BME280;27908;42.708;23.278;2023-04-27T02:20:17;63108.34;;;5.95;80.89
21879;BME280;27908;42.708;23.278;2023-04-27T02:22:43;63109.31;;;5.93;81.41
21879;BME280;27908;42.708;23.278;2023-04-27T02:25:12;63214.34;;;5.82;80.52
21879;BME280;27908;42.708;23.278;2023-04-27T02:27:38;63121.81;;;5.81;82.03
21879;BME280;27908;42.708;23.278;2023-04-27T02:30:08;63144.72;;;5.93;82.19
21879;BME280;27908;42.708;23.278;2023-04-27T02:32:34;63149.28;;;5.93;80.68
21879;BME280;27908;42.708;23.278;2023-04-27T02:35:00;63119.91;;;5.91;80.61
21879;BME280;27908;42.708;23.278;2023-04-27T02:37:27;63123.47;;;5.92;81.57
21879;BME280;27908;42.708;23.278;2023-04-27T02:39:52;63198.03;;;5.40;79.88
21879;BME280;27908;42.708;23.278;2023-04-27T02:42:18;63106.16;;;5.83;81.81
21879;BME280;27908;42.708;23.278;2023-04-27T02:44:43;63215.47;;;5.91;79.98
21879;BME280;27908;42.708;23.278;2023-04-27T02:47:09;63112.91;;;5.97;81.10
21879;BME280;27908;42.708;23.278;2023-04-27T02:49:35;63108.75;;;5.88;80.66
21879;BME280;27908;42.708;23.278;2023-04-27T02:52:00;63197.94;;;6.03;80.85
21879;BME280;27908;42.708;23.278;2023-04-27T02:54:26;63151.81;;;5.93;80.85
21879;BME280;27908;42.708;23.278;2023-04-27T02:56:51;63128.00;;;5.92;79.58
21879;BME280;27908;42.708;23.278;2023-04-27T02:59:17;63116.25;;;5.80;80.41
21879;BME280;27908;42.708;23.278;2023-04-27T03:01:42;63108.53;;;5.70;80.73
21879;BME280;27908;42.708;23.278;2023-04-27T03:04:07;63136.47;;;5.80;81.33
21879;BME280;27908;42.708;23.278;2023-04-27T03:06:33;63062.66;;;5.80;79.61
21879;BME280;27908;42.708;23.278;2023-04-27T03:08:58;63123.31;;;5.80;79.36
21879;BME280;27908;42.708;23.278;2023-04-27T03:11:24;63116.72;;;5.78;80.71
21879;BME280;27908;42.708;23.278;2023-04-27T03:13:49;63145.53;;;5.77;80.98
21879;BME280;27908;42.708;23.278;2023-04-27T03:16:15;63113.06;;;5.70;80.79
21879;BME280;27908;42.708;23.278;2023-04-27T03:18:40;63103.94;;;5.68;81.05
21879;BME280;27908;42.708;23.278;2023-04-27T03:23:31;63069.03;;;5.64;80.73
21879;BME280;27908;42.708;23.278;2023-04-27T03:25:56;63113.00;;;5.65;80.98
21879;BME280;27908;42.708;23.278;2023-04-27T03:28:22;63076.06;;;5.64;80.94
21879;BME280;27908;42.708;23.278;2023-04-27T03:30:47;63042.44;;;5.41;80.86
21879;BME280;27908;42.708;23.278;2023-04-27T03:33:12;63101.22;;;5.54;80.60
21879;BME280;27908;42.708;23.278;2023-04-27T03:35:38;63091.16;;;5.56;81.56
21879;BME280;27908;42.708;23.278;2023-04-27T03:38:03;63114.38;;;5.54;82.44
21879;BME280;27908;42.708;23.278;2023-04-27T03:40:29;63079.44;;;5.50;82.08
21879;BME280;27908;42.708;23.278;2023-04-27T03:42:54;63083.41;;;5.44;81.74
21879;BME280;27908;42.708;23.278;2023-04-27T03:45:19;63042.84;;;5.31;83.26
21879;BME280;27908;42.708;23.278;2023-04-27T03:47:46;63082.28;;;5.35;83.40
21879;BME280;27908;42.708;23.278;2023-04-27T03:50:12;63046.75;;;5.23;83.28
21879;BME280;27908;42.708;23.278;2023-04-27T03:52:37;63045.38;;;5.31;83.21
21879;BME280;27908;42.708;23.278;2023-04-27T03:55:03;63050.34;;;5.27;83.31
21879;BME280;27908;42.708;23.278;2023-04-27T03:57:29;63082.56;;;5.19;83.87
21879;BME280;27908;42.708;23.278;2023-04-27T03:59:56;63073.16;;;5.31;83.08
21879;BME280;27908;42.708;23.278;2023-04-27T04:02:21;63090.31;;;5.31;83.19
21879;BME280;27908;42.708;23.278;2023-04-27T04:04:47;63065.09;;;5.33;84.69
21879;BME280;27908;42.708;23.278;2023-04-27T04:07:13;63058.06;;;5.36;82.84
21879;BME280;27908;42.708;23.278;2023-04-27T04:09:38;63055.59;;;5.41;84.23
21879;BME280;27908;42.708;23.278;2023-04-27T04:12:04;63052.84;;;5.24;82.78
21879;BME280;27908;42.708;23.278;2023-04-27T04:14:29;63067.16;;;5.35;82.39
21879;BME280;27908;42.708;23.278;2023-04-27T04:16:55;63039.38;;;5.35;83.88
21879;BME280;27908;42.708;23.278;2023-04-27T04:19:20;63036.09;;;5.18;82.39
21879;BME280;27908;42.708;23.278;2023-04-27T04:21:45;63034.53;;;5.14;82.68
21879;BME280;27908;42.708;23.278;2023-04-27T04:24:11;63065.59;;;5.34;82.74
21879;BME280;27908;42.708;23.278;2023-04-27T04:26:36;63038.88;;;5.37;83.41
21879;BME280;27908;42.708;23.278;2023-04-27T04:29:03;63086.41;;;5.39;83.37
21879;BME280;27908;42.708;23.278;2023-04-27T04:31:29;63109.56;;;5.35;81.43
21879;BME280;27908;42.708;23.278;2023-04-27T04:33:55;63012.19;;;5.46;83.17
21879;BME280;27908;42.708;23.278;2023-04-27T04:36:20;63067.31;;;5.48;81.43
21879;BME280;27908;42.708;23.278;2023-04-27T04:38:46;63086.03;;;5.51;82.33
21879;BME280;27908;42.708;23.278;2023-04-27T04:41:12;63100.50;;;5.38;81.40
21879;BME280;27908;42.708;23.278;2023-04-27T04:43:37;63095.69;;;5.56;82.06
21879;BME280;27908;42.708;23.278;2023-04-27T04:46:03;63092.72;;;5.60;81.99
21879;BME280;27908;42.708;23.278;2023-04-27T04:48:28;63090.53;;;5.48;81.73
21879;BME280;27908;42.708;23.278;2023-04-27T04:50:53;63090.84;;;5.70;82.32
21879;BME280;27908;42.708;23.278;2023-04-27T04:53:19;63089.78;;;5.67;82.56
21879;BME280;27908;42.708;23.278;2023-04-27T04:55:44;63113.91;;;5.59;81.31
21879;BME280;27908;42.708;23.278;2023-04-27T04:58:10;63167.28;;;5.78;80.64
21879;BME280;27908;42.708;23.278;2023-04-27T05:00:35;63146.72;;;5.90;80.90
21879;BME280;27908;42.708;23.278;2023-04-27T05:03:01;63119.53;;;6.01;80.53
21879;BME280;27908;42.708;23.278;2023-04-27T05:05:26;63107.88;;;5.99;79.89
21879;BME280;27908;42.708;23.278;2023-04-27T05:07:52;63187.16;;;6.27;80.31
21879;BME280;27908;42.708;23.278;2023-04-27T05:10:17;63162.97;;;6.35;80.09
21879;BME280;27908;42.708;23.278;2023-04-27T05:12:43;63159.97;;;6.39;78.15
21879;BME280;27908;42.708;23.278;2023-04-27T05:15:09;63210.28;;;6.56;79.40
21879;BME280;27908;42.708;23.278;2023-04-27T05:17:34;63203.31;;;6.67;76.42
21879;BME280;27908;42.708;23.278;2023-04-27T05:20:00;63228.56;;;6.62;76.79
21879;BME280;27908;42.708;23.278;2023-04-27T05:22:25;63198.78;;;6.28;76.97
21879;BME280;27908;42.708;23.278;2023-04-27T05:24:50;63216.13;;;6.79;77.97
21879;BME280;27908;42.708;23.278;2023-04-27T05:27:16;63262.94;;;6.97;76.53
21879;BME280;27908;42.708;23.278;2023-04-27T05:29:41;63231.72;;;7.13;73.89
21879;BME280;27908;42.708;23.278;2023-04-27T05:32:07;63321.31;;;7.07;73.85
21879;BME280;27908;42.708;23.278;2023-04-27T05:34:32;63260.53;;;7.07;74.86
21879;BME280;27908;42.708;23.278;2023-04-27T05:36:57;63293.59;;;7.17;75.38
21879;BME280;27908;42.708;23.278;2023-04-27T05:39:23;63272.22;;;7.08;75.01
21879;BME280;27908;42.708;23.278;2023-04-27T05:41:48;63279.41;;;7.18;75.08
21879;BME280;27908;42.708;23.278;2023-04-27T05:44:14;63300.31;;;7.28;74.73
21879;BME280;27908;42.708;23.278;2023-04-27T05:46:39;63293.88;;;7.42;73.64
21879;BME280;27908;42.708;23.278;2023-04-27T05:49:04;63322.19;;;7.35;73.45
21879;BME280;27908;42.708;23.278;2023-04-27T05:51:31;63331.25;;;7.31;73.37
21879;BME280;27908;42.708;23.278;2023-04-27T05:53:57;63294.38;;;7.42;74.46
21879;BME280;27908;42.708;23.278;2023-04-27T05:56:24;63338.63;;;7.50;73.16
21879;BME280;27908;42.708;23.278;2023-04-27T05:58:50;63278.06;;;7.34;73.15
21879;BME280;27908;42.708;23.278;2023-04-27T06:01:16;63275.03;;;7.33;73.25
21879;BME280;27908;42.708;23.278;2023-04-27T06:03:41;63313.69;;;7.46;72.44
21879;BME280;27908;42.708;23.278;2023-04-27T06:06:06;63346.50;;;7.75;72.54
21879;BME280;27908;42.708;23.278;2023-04-27T06:08:32;63366.38;;;7.82;70.92
21879;BME280;27908;42.708;23.278;2023-04-27T06:11:01;63396.16;;;8.11;70.92
21879;BME280;27908;42.708;23.278;2023-04-27T06:13:27;63405.44;;;8.22;71.97
21879;BME280;27908;42.708;23.278;2023-04-27T06:15:52;63455.97;;;8.44;68.92
21879;BME280;27908;42.708;23.278;2023-04-27T06:18:17;63487.78;;;8.72;66.72
21879;BME280;27908;42.708;23.278;2023-04-27T06:20:43;63486.94;;;8.88;66.73
21879;BME280;27908;42.708;23.278;2023-04-27T06:23:08;63511.00;;;9.04;65.63
21879;BME280;27908;42.708;23.278;2023-04-27T06:25:34;63528.91;;;9.11;66.51
21879;BME280;27908;42.708;23.278;2023-04-27T06:28:01;63523.97;;;9.26;63.00
21879;BME280;27908;42.708;23.278;2023-04-27T06:30:27;63553.44;;;9.22;64.94
21879;BME280;27908;42.708;23.278;2023-04-27T06:32:52;63559.75;;;9.41;66.29
21879;BME280;27908;42.708;23.278;2023-04-27T06:35:17;63583.16;;;9.41;63.36
21879;BME280;27908;42.708;23.278;2023-04-27T06:37:43;63574.06;;;9.47;64.01
21879;BME280;27908;42.708;23.278;2023-04-27T06:40:09;63561.34;;;9.47;62.49
21879;BME280;27908;42.708;23.278;2023-04-27T06:42:35;63531.00;;;9.18;62.51
21879;BME280;27908;42.708;23.278;2023-04-27T06:45:00;63523.25;;;9.06;63.41
21879;BME280;27908;42.708;23.278;2023-04-27T06:47:26;63579.28;;;9.16;63.19
21879;BME280;27908;42.708;23.278;2023-04-27T06:49:51;63568.66;;;9.20;62.49
21879;BME280;27908;42.708;23.278;2023-04-27T06:52:16;63539.31;;;9.33;63.07
21879;BME280;27908;42.708;23.278;2023-04-27T06:54:42;63584.78;;;9.50;61.49
21879;BME280;27908;42.708;23.278;2023-04-27T06:57:07;63591.31;;;9.44;63.77
21879;BME280;27908;42.708;23.278;2023-04-27T06:59:33;63621.59;;;9.66;62.28
21879;BME280;27908;42.708;23.278;2023-04-27T07:01:58;63605.38;;;9.72;60.37
21879;BME280;27908;42.708;23.278;2023-04-27T07:04:24;63571.53;;;9.47;60.93
21879;BME280;27908;42.708;23.278;2023-04-27T07:06:50;63620.03;;;9.64;61.19
21879;BME280;27908;42.708;23.278;2023-04-27T07:09:15;63613.03;;;9.72;60.84
21879;BME280;27908;42.708;23.278;2023-04-27T07:11:41;63611.13;;;9.85;61.00
21879;BME280;27908;42.708;23.278;2023-04-27T07:14:06;63627.34;;;9.79;60.46
21879;BME280;27908;42.708;23.278;2023-04-27T07:16:31;63611.22;;;9.90;60.28
21879;BME280;27908;42.708;23.278;2023-04-27T07:18:57;63620.81;;;9.87;58.58
21879;BME280;27908;42.708;23.278;2023-04-27T07:21:22;63652.38;;;9.86;57.88
21879;BME280;27908;42.708;23.278;2023-04-27T07:23:48;63614.56;;;9.74;58.14
21879;BME280;27908;42.708;23.278;2023-04-27T07:26:13;63658.72;;;10.04;60.22
21879;BME280;27908;42.708;23.278;2023-04-27T07:28:39;63626.69;;;10.10;59.12
21879;BME280;27908;42.708;23.278;2023-04-27T07:31:05;63679.72;;;10.14;58.72
21879;BME280;27908;42.708;23.278;2023-04-27T07:33:31;63646.06;;;10.14;56.53
21879;BME280;27908;42.708;23.278;2023-04-27T07:36:00;63657.97;;;9.86;56.72
21879;BME280;27908;42.708;23.278;2023-04-27T07:38:26;63699.13;;;10.21;58.85
21879;BME280;27908;42.708;23.278;2023-04-27T07:40:53;63660.38;;;10.18;56.61
21879;BME280;27908;42.708;23.278;2023-04-27T07:43:18;63661.00;;;10.28;57.24
21879;BME280;27908;42.708;23.278;2023-04-27T07:45:44;63669.72;;;10.31;56.35
21879;BME280;27908;42.708;23.278;2023-04-27T07:48:09;63680.44;;;10.34;55.59
21879;BME280;27908;42.708;23.278;2023-04-27T07:50:35;63713.50;;;10.29;55.92
21879;BME280;27908;42.708;23.278;2023-04-27T07:53:01;63710.13;;;10.46;57.39
21879;BME280;27908;42.708;23.278;2023-04-27T07:55:27;63718.91;;;10.57;56.23
21879;BME280;27908;42.708;23.278;2023-04-27T07:57:54;63735.72;;;10.58;56.23
21879;BME280;27908;42.708;23.278;2023-04-27T08:00:19;63677.84;;;10.32;55.02
21879;BME280;27908;42.708;23.278;2023-04-27T08:02:46;63732.50;;;10.43;55.13
21879;BME280;27908;42.708;23.278;2023-04-27T08:05:11;63704.63;;;10.11;55.64
21879;BME280;27908;42.708;23.278;2023-04-27T08:07:37;63712.63;;;10.43;55.49
21879;BME280;27908;42.708;23.278;2023-04-27T08:10:03;63704.19;;;10.64;55.51
21879;BME280;27908;42.708;23.278;2023-04-27T08:12:28;63790.75;;;10.99;54.09
21879;BME280;27908;42.708;23.278;2023-04-27T08:14:54;63803.09;;;11.08;54.90
21879;BME280;27908;42.708;23.278;2023-04-27T08:17:20;63779.59;;;11.05;54.30
21879;BME280;27908;42.708;23.278;2023-04-27T08:19:48;63769.44;;;11.10;54.73
21879;BME280;27908;42.708;23.278;2023-04-27T08:22:13;63769.97;;;11.10;54.97
21879;BME280;27908;42.708;23.278;2023-04-27T08:24:39;63779.16;;;11.09;52.74
21879;BME280;27908;42.708;23.278;2023-04-27T08:27:05;63849.38;;;11.40;54.85
21879;BME280;27908;42.708;23.278;2023-04-27T08:29:30;63850.09;;;11.58;56.07
21879;BME280;27908;42.708;23.278;2023-04-27T08:31:58;63846.13;;;11.66;52.58
21879;BME280;27908;42.708;23.278;2023-04-27T08:34:24;63856.84;;;11.67;55.50
21879;BME280;27908;42.708;23.278;2023-04-27T08:36:50;63893.34;;;11.92;54.14
21879;BME280;27908;42.708;23.278;2023-04-27T08:39:15;63930.31;;;12.07;53.06
21879;BME280;27908;42.708;23.278;2023-04-27T08:41:42;63930.34;;;12.12;53.43
21879;BME280;27908;42.708;23.278;2023-04-27T08:44:08;63898.53;;;11.97;52.87
21879;BME280;27908;42.708;23.278;2023-04-27T08:46:36;63874.94;;;11.89;52.36
21879;BME280;27908;42.708;23.278;2023-04-27T08:49:02;63883.72;;;11.97;53.14
21879;BME280;27908;42.708;23.278;2023-04-27T08:51:28;63978.13;;;12.34;52.89
21879;BME280;27908;42.708;23.278;2023-04-27T08:53:55;63980.59;;;12.26;52.04
21879;BME280;27908;42.708;23.278;2023-04-27T08:56:22;64002.00;;;12.20;50.97
21879;BME280;27908;42.708;23.278;2023-04-27T08:58:49;63960.63;;;12.22;50.86
21879;BME280;27908;42.708;23.278;2023-04-27T09:01:15;63915.31;;;11.91;52.46
21879;BME280;27908;42.708;23.278;2023-04-27T09:03:41;63882.66;;;11.96;52.11
21879;BME280;27908;42.708;23.278;2023-04-27T09:06:07;63952.47;;;12.26;51.28
21879;BME280;27908;42.708;23.278;2023-04-27T09:08:46;64039.50;;;12.80;49.94
21879;BME280;27908;42.708;23.278;2023-04-27T09:11:13;64042.34;;;13.07;50.10
21879;BME280;27908;42.708;23.278;2023-04-27T09:13:40;64092.38;;;12.96;49.94
21879;BME280;27908;42.708;23.278;2023-04-27T09:16:10;64101.84;;;13.17;50.51
21879;BME280;27908;42.708;23.278;2023-04-27T09:18:40;64073.53;;;13.05;51.00
21879;BME280;27908;42.708;23.278;2023-04-27T09:21:06;64023.69;;;12.84;49.64
21879;BME280;27908;42.708;23.278;2023-04-27T09:23:38;63965.53;;;12.51;50.12
21879;BME280;27908;42.708;23.278;2023-04-27T09:26:06;64002.88;;;12.55;50.18
21879;BME280;27908;42.708;23.278;2023-04-27T09:28:38;64105.28;;;13.06;48.89
21879;BME280;27908;42.708;23.278;2023-04-27T09:31:04;64019.75;;;12.54;49.77
21879;BME280;27908;42.708;23.278;2023-04-27T09:33:32;63993.16;;;12.53;49.55
21879;BME280;27908;42.708;23.278;2023-04-27T09:35:59;64031.53;;;12.55;49.46
21879;BME280;27908;42.708;23.278;2023-04-27T09:38:27;64071.34;;;12.91;50.27
21879;BME280;27908;42.708;23.278;2023-04-27T09:40:53;64004.53;;;12.64;47.66
21879;BME280;27908;42.708;23.278;2023-04-27T09:43:19;64041.28;;;12.57;50.33
21879;BME280;27908;42.708;23.278;2023-04-27T09:45:45;64011.59;;;12.53;49.36
21879;BME280;27908;42.708;23.278;2023-04-27T09:48:11;64021.94;;;12.66;50.35
21879;BME280;27908;42.708;23.278;2023-04-27T09:50:39;64008.66;;;12.68;48.74
21879;BME280;27908;42.708;23.278;2023-04-27T09:53:13;64079.16;;;13.03;49.38
21879;BME280;27908;42.708;23.278;2023-04-27T09:55:40;63987.50;;;12.50;47.97
21879;BME280;27908;42.708;23.278;2023-04-27T09:58:43;64048.28;;;12.86;48.77
21879;BME280;27908;42.708;23.278;2023-04-27T10:09:19;64138.34;;;13.33;48.59
21879;BME280;27908;42.708;23.278;2023-04-27T10:11:49;64066.34;;;13.01;47.20
21879;BME280;27908;42.708;23.278;2023-04-27T10:14:18;64024.69;;;12.83;48.90
21879;BME280;27908;42.708;23.278;2023-04-27T10:16:45;64124.47;;;13.27;49.10
21879;BME280;27908;42.708;23.278;2023-04-27T10:19:11;64166.06;;;13.37;45.82
21879;BME280;27908;42.708;23.278;2023-04-27T10:21:37;64154.75;;;13.80;47.11
21879;BME280;27908;42.708;23.278;2023-04-27T10:24:07;64087.09;;;12.81;46.10
21879;BME280;27908;42.708;23.278;2023-04-27T10:26:33;64099.25;;;13.15;47.92
21879;BME280;27908;42.708;23.278;2023-04-27T10:29:06;64149.66;;;13.36;45.84
21879;BME280;27908;42.708;23.278;2023-04-27T10:31:32;64165.94;;;13.71;46.28
21879;BME280;27908;42.708;23.278;2023-04-27T10:34:10;64121.56;;;13.44;47.67
21879;BME280;27908;42.708;23.278;2023-04-27T10:36:40;64182.88;;;13.75;47.30
21879;BME280;27908;42.708;23.278;2023-04-27T10:39:16;64177.75;;;13.75;45.20
21879;BME280;27908;42.708;23.278;2023-04-27T10:41:52;64237.78;;;14.27;44.62
21879;BME280;27908;42.708;23.278;2023-04-27T10:44:29;64344.84;;;14.61;44.48
21879;BME280;27908;42.708;23.278;2023-04-27T10:46:56;64325.75;;;14.50;42.78
21879;BME280;27908;42.708;23.278;2023-04-27T10:49:25;64165.47;;;13.78;42.40
21879;BME280;27908;42.708;23.278;2023-04-27T10:51:51;64109.97;;;13.59;44.03
21879;BME280;27908;42.708;23.278;2023-04-27T10:54:16;64170.72;;;13.90;46.52
21879;BME280;27908;42.708;23.278;2023-04-27T10:56:43;64278.81;;;14.27;43.93
21879;BME280;27908;42.708;23.278;2023-04-27T10:59:08;64316.06;;;14.56;45.27
21879;BME280;27908;42.708;23.278;2023-04-27T11:01:34;64337.31;;;14.73;43.71
21879;BME280;27908;42.708;23.278;2023-04-27T11:04:01;64365.69;;;14.88;44.23
21879;BME280;27908;42.708;23.278;2023-04-27T11:06:28;64378.75;;;15.08;44.22
21879;BME280;27908;42.708;23.278;2023-04-27T11:08:54;64521.41;;;15.80;42.97
21879;BME280;27908;42.708;23.278;2023-04-27T11:11:21;64352.19;;;14.75;42.01
21879;BME280;27908;42.708;23.278;2023-04-27T11:13:49;64272.44;;;14.56;42.63
21879;BME280;27908;42.708;23.278;2023-04-27T11:16:17;64254.84;;;14.39;42.97
21879;BME280;27908;42.708;23.278;2023-04-27T11:18:44;64155.22;;;13.76;44.20
21879;BME280;27908;42.708;23.278;2023-04-27T11:21:12;64233.31;;;13.96;43.16
21879;BME280;27908;42.708;23.278;2023-04-27T11:23:39;64177.31;;;13.82;44.19
21879;BME280;27908;42.708;23.278;2023-04-27T11:26:13;64155.28;;;13.83;43.92
21879;BME280;27908;42.708;23.278;2023-04-27T11:28:39;64154.38;;;13.46;44.10
21879;BME280;27908;42.708;23.278;2023-04-27T11:31:06;64185.34;;;13.65;44.51
21879;BME280;27908;42.708;23.278;2023-04-27T11:33:32;64156.72;;;13.75;45.20
21879;BME280;27908;42.708;23.278;2023-04-27T11:35:58;64200.63;;;14.04;44.72
21879;BME280;27908;42.708;23.278;2023-04-27T11:38:24;64272.31;;;13.99;43.68
21879;BME280;27908;42.708;23.278;2023-04-27T11:41:04;64266.44;;;14.21;43.28
21879;BME280;27908;42.708;23.278;2023-04-27T11:43:31;64264.91;;;14.22;45.47
21879;BME280;27908;42.708;23.278;2023-04-27T11:45:57;64280.75;;;14.17;44.37
21879;BME280;27908;42.708;23.278;2023-04-27T11:48:23;64252.59;;;14.20;45.51
21879;BME280;27908;42.708;23.278;2023-04-27T11:50:49;64248.53;;;14.25;43.63
21879;BME280;27908;42.708;23.278;2023-04-27T11:53:15;64285.44;;;14.24;43.28
21879;BME280;27908;42.708;23.278;2023-04-27T11:55:41;64251.91;;;14.07;42.71
21879;BME280;27908;42.708;23.278;2023-04-27T11:58:14;64234.31;;;14.36;43.58
21879;BME280;27908;42.708;23.278;2023-04-27T12:00:40;64256.44;;;14.45;43.14
21879;BME280;27908;42.708;23.278;2023-04-27T12:03:06;64287.16;;;14.40;42.54
21879;BME280;27908;42.708;23.278;2023-04-27T12:05:31;64271.09;;;14.25;43.31
21879;BME280;27908;42.708;23.278;2023-04-27T12:07:57;64323.31;;;14.60;43.78
21879;BME280;27908;42.708;23.278;2023-04-27T12:10:23;64263.63;;;14.45;43.08
21879;BME280;27908;42.708;23.278;2023-04-27T12:12:49;64254.75;;;13.87;43.15
21879;BME280;27908;42.708;23.278;2023-04-27T12:15:14;64169.47;;;13.67;44.67
21879;BME280;27908;42.708;23.278;2023-04-27T12:17:40;64314.44;;;14.49;42.54
21879;BME280;27908;42.708;23.278;2023-04-27T12:20:06;64345.56;;;14.76;43.39
21879;BME280;27908;42.708;23.278;2023-04-27T12:22:32;64322.88;;;14.69;43.27
21879;BME280;27908;42.708;23.278;2023-04-27T12:24:57;64273.44;;;14.52;42.62
21879;BME280;27908;42.708;23.278;2023-04-27T12:27:23;64260.91;;;14.30;43.35
21879;BME280;27908;42.708;23.278;2023-04-27T12:29:48;64220.09;;;14.03;44.57
21879;BME280;27908;42.708;23.278;2023-04-27T12:32:14;64200.69;;;14.09;42.88
21879;BME280;27908;42.708;23.278;2023-04-27T12:34:40;64219.56;;;14.00;43.80
21879;BME280;27908;42.708;23.278;2023-04-27T12:37:07;64148.97;;;13.67;43.19
21879;BME280;27908;42.708;23.278;2023-04-27T12:39:32;64154.81;;;13.87;43.94
21879;BME280;27908;42.708;23.278;2023-04-27T12:41:58;64256.13;;;14.16;42.71
21879;BME280;27908;42.708;23.278;2023-04-27T12:44:23;64251.09;;;14.25;42.99
21879;BME280;27908;42.708;23.278;2023-04-27T12:46:49;64260.47;;;14.39;42.93
21879;BME280;27908;42.708;23.278;2023-04-27T12:49:15;64225.44;;;14.23;43.17
21879;BME280;27908;42.708;23.278;2023-04-27T12:51:41;64300.72;;;14.14;43.65
21879;BME280;27908;42.708;23.278;2023-04-27T12:54:08;64243.63;;;14.45;43.57
21879;BME280;27908;42.708;23.278;2023-04-27T12:56:33;64304.63;;;14.89;43.87
21879;BME280;27908;42.708;23.278;2023-04-27T12:58:59;64239.16;;;14.12;43.19
21879;BME280;27908;42.708;23.278;2023-04-27T13:01:25;64297.47;;;14.45;42.83